Time;durP1;ratioP1;P1;durP2;ratioP2;P2;SDS_P1;SDS_P2;PMS_P1;PMS_P2;Temp;Humidity;BMP_temperature;BMP_pressure;BME280_temperature;BME280_humidity;BME280_pressure;Samples;Min_cycle;Max_cycle;Signal;HPM_P1;HPM_P2
2022/02/14 04:50:47;;;;;;;3.55;1.60;;;8.10;42.10;;;;;;5457106;23;20051;-76
2022/02/14 04:53:14;;;;;;;4.80;2.20;;;8.10;42.10;;;;;;4936317;29;20130;-76
2022/02/14 04:55:41;;;;;;;4.75;1.80;;;8.10;42.10;;;;;;4936512;29;20058;-74
2022/02/14 04:58:08;;;;;;;5.00;1.88;;;8.10;42.20;;;;;;4935870;29;20058;-74
2022/02/14 05:00:35;;;;;;;6.55;1.90;;;8.10;42.10;;;;;;4936076;29;20046;-76
2022/02/14 05:03:03;;;;;;;4.00;1.70;;;8.10;42.10;;;;;;4936295;29;20077;-75
2022/02/14 05:05:30;;;;;;;4.38;1.77;;;8.10;42.20;;;;;;4935594;29;20047;-75
2022/02/14 05:07:58;;;;;;;3.30;1.60;;;8.10;42.20;;;;;;4935955;29;20047;-73
2022/02/14 05:10:25;;;;;;;3.72;1.60;;;8.10;42.10;;;;;;4936027;29;20130;-73
2022/02/14 05:12:52;;;;;;;4.47;1.85;;;8.20;42.10;;;;;;4935857;29;20047;-75
2022/02/14 05:15:19;;;;;;;4.18;1.70;;;8.20;42.10;;;;;;4935823;29;20050;-73
2022/02/14 05:17:46;;;;;;;5.55;1.80;;;8.10;42.10;;;;;;4936052;29;20131;-76
2022/02/14 05:20:13;;;;;;;3.70;1.70;;;8.20;42.30;;;;;;4935841;29;20564;-74
2022/02/14 05:22:40;;;;;;;3.70;1.70;;;8.20;42.40;;;;;;4938107;29;20134;-76
2022/02/14 05:25:09;;;;;;;5.03;1.83;;;8.20;42.80;;;;;;4935811;29;20051;-75
2022/02/14 05:27:36;;;;;;;5.07;1.80;;;8.20;42.70;;;;;;4935973;29;20126;-74
2022/02/14 05:30:05;;;;;;;4.35;1.80;;;8.20;42.70;;;;;;4935272;29;20058;-73
2022/02/14 05:32:32;;;;;;;4.93;1.80;;;8.20;42.50;;;;;;4934975;29;20044;-74
2022/02/14 05:34:59;;;;;;;4.00;1.70;;;8.20;42.50;;;;;;4935835;29;20052;-77
2022/02/14 05:37:26;;;;;;;3.53;1.75;;;8.20;42.60;;;;;;4936180;29;20111;-77
2022/02/14 05:39:53;;;;;;;5.82;1.90;;;8.20;42.60;;;;;;4936426;29;20055;-77
2022/02/14 05:42:22;;;;;;;4.57;1.83;;;8.20;42.50;;;;;;4936510;29;20136;-77
2022/02/14 05:44:49;;;;;;;4.13;1.88;;;8.20;42.50;;;;;;4936501;29;20142;-74
2022/02/14 05:47:17;;;;;;;4.13;1.60;;;8.20;42.60;;;;;;4936068;29;20054;-76
2022/02/14 05:49:44;;;;;;;4.82;1.90;;;8.20;42.60;;;;;;4935488;29;20058;-73
2022/02/14 05:52:11;;;;;;;3.20;1.63;;;8.20;42.50;;;;;;4935412;29;20150;-75
2022/02/14 05:54:38;;;;;;;5.30;1.92;;;8.20;42.50;;;;;;4935684;29;20062;-75
2022/02/14 05:57:05;;;;;;;4.30;1.70;;;8.20;42.40;;;;;;4935753;29;20059;-74
2022/02/14 05:59:34;;;;;;;5.50;1.98;;;8.20;42.20;;;;;;4935619;29;20079;-77
2022/02/14 06:02:02;;;;;;;3.78;1.55;;;8.20;42.10;;;;;;4935311;29;20585;-76
2022/02/14 06:04:29;;;;;;;3.97;1.77;;;8.20;42.10;;;;;;4935328;29;20058;-76
2022/02/14 06:06:56;;;;;;;3.30;1.38;;;8.20;42.20;;;;;;4938733;29;20142;-75
2022/02/14 06:09:26;;;;;;;5.25;1.73;;;8.20;42.10;;;;;;4939193;29;20134;-76
2022/02/14 06:11:53;;;;;;;5.38;2.33;;;8.20;42.20;;;;;;4939461;29;20056;-75
2022/02/14 06:14:21;;;;;;;8.70;2.53;;;8.20;43.20;;;;;;4939137;29;20135;-77
2022/02/14 06:16:49;;;;;;;6.50;2.60;;;8.10;44.70;;;;;;4938932;29;20581;-75
2022/02/14 06:19:17;;;;;;;7.25;2.85;;;8.00;45.90;;;;;;4938742;29;20139;-73
2022/02/14 06:21:44;;;;;;;7.30;2.60;;;7.80;46.30;;;;;;4939026;29;20051;-75
2022/02/14 06:24:11;;;;;;;5.57;2.95;;;7.70;47.00;;;;;;4938819;29;20139;-74
2022/02/14 06:26:38;;;;;;;4.43;1.90;;;7.50;47.20;;;;;;4938789;29;20058;-76
2022/02/14 06:29:06;;;;;;;5.93;2.80;;;7.40;46.40;;;;;;4938619;29;20134;-73
2022/02/14 06:31:33;;;;;;;5.60;2.72;;;7.40;47.20;;;;;;4938619;29;20059;-76
2022/02/14 06:34:01;;;;;;;5.88;3.00;;;7.30;47.60;;;;;;4938587;29;20056;-75
2022/02/14 06:36:29;;;;;;;6.22;3.05;;;7.20;48.40;;;;;;4938860;29;20417;-74
2022/02/14 06:38:57;;;;;;;5.20;3.00;;;7.10;50.00;;;;;;4938633;29;20087;-75
2022/02/14 06:41:24;;;;;;;7.13;3.28;;;6.90;50.60;;;;;;4938525;29;20052;-76
2022/02/14 06:43:52;;;;;;;8.70;3.30;;;6.70;50.90;;;;;;4938548;29;20043;-74
2022/02/14 06:46:19;;;;;;;5.47;3.03;;;6.60;51.90;;;;;;4938479;29;20063;-76
2022/02/14 06:48:47;;;;;;;7.07;3.40;;;6.40;52.80;;;;;;4938575;29;20454;-75
2022/02/14 06:51:17;;;;;;;7.22;3.28;;;6.30;53.20;;;;;;4938435;29;20151;-75
2022/02/14 06:53:44;;;;;;;5.35;3.00;;;6.20;53.40;;;;;;4938805;29;20050;-78
2022/02/14 06:56:12;;;;;;;7.75;3.47;;;6.10;53.60;;;;;;4938741;29;20126;-75
2022/02/14 06:58:41;;;;;;;6.53;3.45;;;6.10;53.60;;;;;;4938464;29;20052;-75
2022/02/14 07:01:09;;;;;;;7.28;3.10;;;6.00;53.60;;;;;;4938221;29;20465;-76
2022/02/14 07:03:37;;;;;;;6.32;3.03;;;6.00;54.10;;;;;;4938444;29;20047;-74
2022/02/14 07:06:05;;;;;;;8.85;3.47;;;6.00;54.70;;;;;;4938201;29;20056;-75
2022/02/14 07:08:34;;;;;;;7.10;3.80;;;6.00;55.10;;;;;;4938182;29;20043;-74
2022/02/14 07:11:02;;;;;;;8.35;4.00;;;5.90;55.30;;;;;;4938088;29;20142;-74
2022/02/14 07:13:29;;;;;;;7.28;3.50;;;5.90;55.40;;;;;;4938152;29;20063;-74
2022/02/14 07:15:56;;;;;;;6.95;3.65;;;5.80;55.80;;;;;;4938188;29;20134;-74
2022/02/14 07:18:25;;;;;;;6.40;3.70;;;5.70;56.20;;;;;;4937088;29;20123;-74
2022/02/14 07:20:52;;;;;;;7.75;3.42;;;5.70;56.30;;;;;;4937867;29;20086;-74
2022/02/14 07:23:19;;;;;;;10.98;4.18;;;5.60;56.40;;;;;;4937687;29;20485;-74
2022/02/14 07:25:48;;;;;;;7.57;3.75;;;5.60;60.70;;;;;;4937745;29;20051;-75
2022/02/14 07:28:15;;;;;;;9.52;4.15;;;5.60;59.00;;;;;;4937801;29;20143;-73
2022/02/14 07:30:42;;;;;;;6.60;3.80;;;5.50;57.10;;;;;;4937765;29;20051;-75
2022/02/14 07:33:09;;;;;;;8.27;3.50;;;5.50;57.00;;;;;;4937551;29;20511;-74
2022/02/14 07:35:36;;;;;;;6.95;3.60;;;5.50;57.10;;;;;;4937540;29;20061;-75
2022/02/14 07:38:03;;;;;;;8.35;3.58;;;5.50;57.40;;;;;;4937510;29;20118;-74
2022/02/14 07:40:30;;;;;;;7.32;3.50;;;5.50;57.80;;;;;;4937602;29;20588;-73
2022/02/14 07:42:58;;;;;;;8.40;3.97;;;5.50;58.10;;;;;;4937497;29;20135;-76
2022/02/14 07:45:25;;;;;;;8.38;3.80;;;5.60;61.10;;;;;;4937593;29;20135;-75
2022/02/14 07:47:52;;;;;;;5.80;3.30;;;5.50;57.80;;;;;;4937727;29;20058;-76
2022/02/14 07:50:20;;;;;;;6.97;3.53;;;5.60;58.10;;;;;;4937107;29;20051;-77
2022/02/14 07:52:47;;;;;;;6.70;3.05;;;5.60;58.40;;;;;;4937391;29;20103;-73
2022/02/14 07:55:14;;;;;;;7.90;3.58;;;5.60;58.50;;;;;;4937174;29;20078;-77
2022/02/14 07:57:41;;;;;;;6.38;3.20;;;5.60;58.60;;;;;;4937206;29;20134;-74
2022/02/14 08:00:11;;;;;;;6.70;3.67;;;5.60;58.50;;;;;;4937203;29;20126;-74
2022/02/14 08:02:39;;;;;;;7.68;3.80;;;5.60;58.80;;;;;;4937148;29;20135;-73
2022/02/14 08:05:08;;;;;;;6.88;3.65;;;5.60;59.00;;;;;;4936989;29;20146;-76
2022/02/14 08:07:35;;;;;;;7.70;3.70;;;5.70;59.20;;;;;;4937028;29;20065;-76
2022/02/14 08:10:02;;;;;;;8.45;3.85;;;5.60;59.80;;;;;;4936862;29;20556;-75
2022/02/14 08:12:30;;;;;;;8.90;3.38;;;5.70;60.50;;;;;;4936962;29;20062;-75
2022/02/14 08:14:57;;;;;;;5.97;2.83;;;5.70;61.70;;;;;;4937626;29;20494;-74
2022/02/14 08:17:25;;;;;;;5.88;3.10;;;5.80;74.00;;;;;;4937079;29;20524;-74
2022/02/14 08:19:52;;;;;;;6.55;3.17;;;5.80;81.90;;;;;;4936722;29;20054;-74
2022/02/14 08:22:19;;;;;;;8.40;3.80;;;5.80;82.80;;;;;;4936945;29;20056;-73
2022/02/14 08:24:46;;;;;;;7.55;3.50;;;5.90;83.80;;;;;;4938640;29;20143;-74
2022/02/14 08:27:13;;;;;;;7.13;3.40;;;5.90;84.90;;;;;;4937740;29;20052;-74
2022/02/14 08:29:43;;;;;;;7.25;2.97;;;6.00;85.70;;;;;;4937042;29;20580;-74
2022/02/14 08:32:10;;;;;;;9.63;3.40;;;6.20;86.40;;;;;;4937035;29;20047;-76
2022/02/14 08:34:39;;;;;;;6.78;3.40;;;6.20;86.10;;;;;;4936786;29;20092;-76
2022/02/14 08:37:06;;;;;;;9.77;3.70;;;6.20;86.40;;;;;;4936971;29;20058;-74
2022/02/14 08:39:33;;;;;;;7.70;3.58;;;6.30;86.60;;;;;;4937281;29;20142;-74
2022/02/14 08:42:00;;;;;;;8.27;3.67;;;6.30;87.00;;;;;;4919499;29;20063;-76
2022/02/14 08:44:27;;;;;;;9.65;3.65;;;6.40;87.60;;;;;;4936716;29;20132;-74
2022/02/14 08:46:54;;;;;;;7.55;3.40;;;6.50;87.90;;;;;;4936301;29;20416;-73
2022/02/14 08:49:24;;;;;;;7.07;3.80;;;6.60;87.90;;;;;;4936410;29;20052;-77
2022/02/14 08:51:53;;;;;;;9.02;3.50;;;6.70;88.20;;;;;;4936377;29;20087;-74
2022/02/14 08:54:21;;;;;;;7.85;3.78;;;6.70;88.30;;;;;;4936644;29;20047;-73
2022/02/14 08:56:48;;;;;;;7.38;3.67;;;6.80;88.30;;;;;;4936317;29;20050;-75
2022/02/14 08:59:19;;;;;;;8.13;3.35;;;6.90;88.20;;;;;;4936154;29;20048;-77
2022/02/14 09:01:47;;;;;;;8.80;3.60;;;7.00;88.30;;;;;;4935980;29;20048;-75
2022/02/14 09:04:14;;;;;;;7.57;3.58;;;7.10;88.50;;;;;;4936409;29;20055;-75
2022/02/14 09:06:41;;;;;;;7.72;3.92;;;7.20;88.60;;;;;;4935908;29;20055;-77
2022/02/14 09:09:10;;;;;;;8.85;4.18;;;7.30;88.80;;;;;;4936398;29;20070;-74
2022/02/14 09:11:38;;;;;;;7.45;3.83;;;7.40;88.80;;;;;;4936483;29;20462;-74
2022/02/14 09:14:05;;;;;;;6.68;3.67;;;7.50;88.90;;;;;;4935728;29;20051;-75
2022/02/14 09:16:32;;;;;;;7.00;3.88;;;7.60;89.20;;;;;;4936374;29;20062;-73
2022/02/14 09:18:59;;;;;;;7.85;4.03;;;7.70;89.30;;;;;;4937406;29;20047;-74
2022/02/14 09:21:27;;;;;;;8.13;4.18;;;7.80;89.30;;;;;;4936395;29;20073;-74
2022/02/14 09:23:54;;;;;;;7.95;3.63;;;7.90;89.40;;;;;;4936465;29;20078;-76
2022/02/14 09:26:23;;;;;;;8.10;3.90;;;7.90;89.00;;;;;;4935990;29;20485;-74
2022/02/14 09:28:50;;;;;;;7.32;3.42;;;8.20;89.00;;;;;;4934495;29;20515;-74
2022/02/14 09:31:17;;;;;;;7.25;3.28;;;8.20;88.60;;;;;;4935811;29;20139;-75
2022/02/14 09:33:44;;;;;;;8.65;3.53;;;8.30;69.10;;;;;;4935969;29;20079;-75
2022/02/14 09:36:12;;;;;;;7.20;3.30;;;8.50;66.10;;;;;;4936450;29;20051;-73
2022/02/14 09:38:39;;;;;;;6.57;3.03;;;8.60;65.80;;;;;;4936093;29;20134;-75
2022/02/14 09:41:06;;;;;;;6.43;3.20;;;8.70;65.80;;;;;;4937769;29;20477;-73
2022/02/14 09:43:36;;;;;;;6.47;3.05;;;8.80;65.60;;;;;;4939890;29;20130;-75
2022/02/14 09:46:04;;;;;;;5.47;2.88;;;9.00;66.00;;;;;;4939643;29;20059;-75
2022/02/14 09:48:34;;;;;;;8.13;3.28;;;9.10;65.10;;;;;;4939785;29;20054;-75
2022/02/14 09:51:01;;;;;;;8.05;3.10;;;9.10;65.10;;;;;;4939309;29;20494;-75
2022/02/14 09:53:29;;;;;;;8.88;3.15;;;9.30;65.60;;;;;;4939527;29;20090;-77
2022/02/14 09:55:58;;;;;;;7.13;2.50;;;9.40;68.00;;;;;;4939574;29;20110;-75
2022/02/14 09:58:25;;;;;;;5.22;2.40;;;9.50;69.50;;;;;;4939716;29;20058;-74
2022/02/14 10:00:54;;;;;;;8.07;3.50;;;9.50;70.20;;;;;;4939160;29;20524;-76
2022/02/14 10:03:24;;;;;;;8.10;3.80;;;9.70;71.60;;;;;;4939317;29;20135;-75
2022/02/14 10:05:53;;;;;;;7.75;2.70;;;9.80;73.20;;;;;;4939339;29;20409;-78
2022/02/14 10:08:23;;;;;;;6.57;2.30;;;9.80;73.80;;;;;;4938886;29;20062;-74
2022/02/14 10:10:53;;;;;;;6.55;2.75;;;10.30;74.70;;;;;;4939114;29;20686;-74
2022/02/14 10:13:33;;;;;;;6.30;2.33;;;10.00;74.40;;;;;;4939577;29;20146;-74
2022/02/14 10:16:07;;;;;;;4.97;2.35;;;10.00;71.70;;;;;;4939951;29;20058;-75
2022/02/14 10:18:36;;;;;;;5.75;2.42;;;9.80;74.10;;;;;;4939467;29;20043;-75
2022/02/14 10:21:25;;;;;;;5.38;1.88;;;10.90;75.40;;;;;;4938697;29;20134;-74
2022/02/14 10:24:16;;;;;;;6.25;2.50;;;10.60;59.00;;;;;;4939658;29;20478;-77
2022/02/14 10:26:45;;;;;;;6.05;2.30;;;10.40;52.70;;;;;;4936771;29;20102;-78
2022/02/14 10:29:16;;;;;;;6.05;2.20;;;10.60;52.70;;;;;;4939325;29;20102;-78
2022/02/14 10:31:47;;;;;;;6.20;2.38;;;10.70;52.90;;;;;;4938869;29;20134;-79
2022/02/14 10:34:15;;;;;;;6.18;2.30;;;10.90;52.80;;;;;;4938867;29;20048;-77
2022/02/14 10:36:45;;;;;;;20.50;10.25;;;11.00;52.60;;;;;;4939138;29;20556;-80
2022/02/14 10:39:15;;;;;;;12.10;5.18;;;11.20;52.60;;;;;;4939346;29;20143;-79
2022/02/14 10:41:46;;;;;;;7.95;2.90;;;11.30;52.50;;;;;;4939068;29;20501;-77
2022/02/14 10:45:07;;;;;;;6.75;2.47;;;12.10;60.70;;;;;;4938900;29;20481;-78
2022/02/14 10:47:13;;;;;;;7.13;2.38;;;11.50;57.70;;;;;;4937997;29;20056;-78
2022/02/14 10:49:41;;;;;;;7.93;2.50;;;11.70;60.90;;;;;;4938209;29;20056;-79
2022/02/14 10:52:12;;;;;;;7.60;2.78;;;11.90;58.10;;;;;;4937281;29;20060;-80
2022/02/14 10:54:42;;;;;;;7.13;2.75;;;11.80;53.00;;;;;;4938714;29;20048;-76
2022/02/14 10:57:28;;;;;;;5.47;2.30;;;11.80;53.00;;;;;;4938414;29;20055;-78
2022/02/14 11:00:00;;;;;;;6.70;2.53;;;11.90;53.40;;;;;;4938005;29;20469;-80
2022/02/14 11:02:30;;;;;;;5.15;2.30;;;12.10;53.60;;;;;;4938345;29;20099;-78
2022/02/14 11:04:57;;;;;;;6.10;2.40;;;12.20;53.40;;;;;;4938232;29;20143;-78
2022/02/14 11:07:27;;;;;;;7.95;2.78;;;12.30;53.30;;;;;;4938128;29;20497;-79
2022/02/14 11:09:58;;;;;;;6.90;2.40;;;12.40;53.30;;;;;;4939028;29;20065;-80
2022/02/14 11:12:30;;;;;;;11.88;2.50;;;12.50;62.20;;;;;;4937198;29;20055;-78
2022/02/14 11:14:58;;;;;;;6.45;2.10;;;12.50;53.80;;;;;;4938134;29;20052;-77
2022/02/14 11:17:28;;;;;;;5.05;2.10;;;12.60;54.20;;;;;;4938160;29;20501;-78
2022/02/14 11:19:58;;;;;;;5.72;2.00;;;12.60;54.60;;;;;;4937811;29;20413;-78
2022/02/14 11:22:29;;;;;;;4.68;1.80;;;12.70;67.70;;;;;;4937774;29;20134;-77
2022/02/14 11:25:14;;;;;;;7.40;1.88;;;12.90;62.70;;;;;;4938626;29;20126;-75
2022/02/14 11:27:49;;;;;;;5.80;2.13;;;12.80;63.40;;;;;;4938581;29;20066;-76
2022/02/14 11:30:17;;;;;;;4.65;1.65;;;12.90;64.40;;;;;;4938296;29;20052;-77
2022/02/14 11:33:05;;;;;;;6.03;1.90;;;13.00;66.80;;;;;;4938543;29;20058;-76
2022/02/14 11:35:33;;;;;;;4.55;1.80;;;12.80;56.90;;;;;;4938289;29;20052;-78
2022/02/14 11:38:01;;;;;;;6.30;1.90;;;12.80;57.00;;;;;;4937576;29;20047;-76
2022/02/14 11:40:36;;;;;;;6.05;1.98;;;12.80;57.10;;;;;;4937742;29;20060;-75
2022/02/14 11:43:12;;;;;;;;;;;12.80;57.30;;;;;;4938349;29;20055;-78
2022/02/14 11:45:41;;;;;;;5.32;1.95;;;12.80;57.70;;;;;;4935677;29;19966;-76
2022/02/14 11:48:27;;;;;;;6.80;2.22;;;12.70;57.50;;;;;;4936935;29;20133;-77
2022/02/14 11:51:09;;;;;;;5.18;1.83;;;12.70;58.00;;;;;;4937205;29;20051;-77
2022/02/14 11:53:41;;;;;;;5.65;1.77;;;12.60;58.20;;;;;;4936949;29;20138;-76
2022/02/14 11:56:29;;;;;;;5.82;2.20;;;12.60;58.20;;;;;;4937006;29;20043;-77
2022/02/14 11:59:15;;;;;;;8.45;2.35;;;12.50;58.50;;;;;;4936921;29;20130;-75
2022/02/14 12:02:02;;;;;;;8.10;2.28;;;12.50;58.70;;;;;;4936803;29;20060;-78
2022/02/14 12:04:46;;;;;;;3.50;1.80;;;12.50;58.80;;;;;;4936477;29;20051;-78
2022/02/14 12:07:24;;;;;;;6.07;2.00;;;12.50;59.20;;;;;;4936559;29;20051;-76
2022/02/14 12:10:26;;;;;;;6.85;1.95;;;12.50;59.70;;;;;;4936305;29;20066;-77
2022/02/14 12:13:13;;;;;;;5.72;1.90;;;12.50;60.10;;;;;;4937131;29;20052;-75
2022/02/14 12:21:34;;;;;;;5.05;1.23;;;12.50;61.40;;;;;;4937249;29;20054;-78
2022/02/14 12:24:19;;;;;;;3.85;1.77;;;12.40;61.70;;;;;;4935700;29;20067;-77
2022/02/14 12:26:52;;;;;;;5.15;1.50;;;12.40;62.40;;;;;;4936979;29;20054;-75
2022/02/14 12:29:36;;;;;;;3.85;1.60;;;12.40;62.80;;;;;;4936757;29;20083;-78
2022/02/14 12:32:07;;;;;;;5.50;1.38;;;12.40;63.50;;;;;;4917872;29;20052;-76
2022/02/14 12:34:37;;;;;;;6.13;1.63;;;12.40;63.80;;;;;;4923990;29;20095;-79
2022/02/14 12:37:09;;;;;;;4.57;1.50;;;12.40;65.10;;;;;;4918836;29;20418;-77
2022/02/14 12:39:40;;;;;;;5.28;1.40;;;12.40;65.60;;;;;;4919508;29;20131;-76
2022/02/14 12:42:19;;;;;;;4.47;1.48;;;12.50;66.30;;;;;;4919068;29;20048;-75
2022/02/14 12:44:47;;;;;;;6.38;2.28;;;12.50;66.90;;;;;;4917591;29;20135;-75
2022/02/14 12:47:16;;;;;;;6.22;1.70;;;12.40;67.10;;;;;;4917463;29;20099;-76
2022/02/14 12:50:07;;;;;;;3.92;1.50;;;12.50;67.80;;;;;;4917057;29;20142;-76
2022/02/14 12:52:36;;;;;;;4.47;1.40;;;12.50;68.50;;;;;;4917314;29;20182;-75
2022/02/14 12:55:04;;;;;;;4.60;1.42;;;12.60;69.00;;;;;;4934741;29;20056;-74
2022/02/14 12:57:38;;;;;;;5.22;1.70;;;12.50;69.30;;;;;;4936557;29;20159;-79
2022/02/14 13:00:31;;;;;;;4.53;1.52;;;12.70;69.80;;;;;;4936251;29;20083;-76
2022/02/14 13:03:00;;;;;;;3.55;1.40;;;12.60;71.20;;;;;;4935711;29;20044;-75
2022/02/14 13:05:29;;;;;;;4.18;1.55;;;12.70;72.70;;;;;;4936193;29;20560;-74
2022/02/14 13:07:58;;;;;;;6.32;1.70;;;12.60;73.10;;;;;;4936017;29;20474;-75
2022/02/14 13:10:26;;;;;;;5.95;1.50;;;12.60;73.30;;;;;;4935812;29;20052;-76
2022/02/14 13:13:01;;;;;;;5.05;1.30;;;12.50;74.50;;;;;;4935974;29;20130;-76
2022/02/14 13:15:28;;;;;;;4.57;1.50;;;12.50;75.60;;;;;;4934696;29;20564;-75
2022/02/14 13:17:56;;;;;;;4.32;1.48;;;12.60;78.40;;;;;;4935529;29;20135;-76
2022/02/14 13:20:23;;;;;;;4.97;1.33;;;12.60;79.00;;;;;;4935963;29;20052;-75
2022/02/14 13:22:50;;;;;;;6.68;1.60;;;12.70;79.10;;;;;;4935757;29;20142;-76
2022/02/14 13:25:21;;;;;;;5.78;1.65;;;12.50;78.80;;;;;;4935690;29;20138;-76
2022/02/14 13:27:50;;;;;;;5.28;1.90;;;12.60;79.50;;;;;;4935701;29;20079;-75
2022/02/14 13:30:19;;;;;;;4.40;1.60;;;12.70;81.00;;;;;;4935569;29;20108;-78
2022/02/14 13:32:49;;;;;;;4.20;1.52;;;12.70;89.40;;;;;;4918485;29;20044;-75
2022/02/14 13:35:20;;;;;;;5.72;1.70;;;12.60;81.40;;;;;;4935546;29;20052;-76
2022/02/14 13:37:53;;;;;;;4.18;1.48;;;12.70;78.70;;;;;;4935855;29;20108;-76
2022/02/14 13:40:36;;;;;;;4.93;1.50;;;12.80;77.10;;;;;;4935627;29;20480;-78
2022/02/14 13:43:06;;;;;;;4.75;1.70;;;12.80;75.80;;;;;;4935056;29;20103;-79
2022/02/14 13:45:45;;;;;;;4.55;1.63;;;12.80;76.10;;;;;;4935317;29;20095;-79
2022/02/14 13:48:19;;;;;;;3.72;1.50;;;12.90;77.30;;;;;;4936477;29;20219;-76
2022/02/14 13:50:48;;;;;;;4.75;1.38;;;13.10;77.10;;;;;;4939293;29;20116;-77
2022/02/14 13:53:23;;;;;;;6.88;1.38;;;12.90;78.30;;;;;;4943165;29;20067;-77
2022/02/14 13:56:08;;;;;;;4.47;1.30;;;12.90;79.40;;;;;;4936505;29;20044;-78
2022/02/14 13:58:38;;;;;;;4.50;1.55;;;12.80;79.20;;;;;;4936621;29;20226;-77
2022/02/14 14:01:25;;;;;;;3.63;1.23;;;12.80;80.70;;;;;;4936055;29;20155;-78
2022/02/14 14:03:53;;;;;;;5.28;1.65;;;12.70;83.00;;;;;;4934406;29;20087;-79
2022/02/14 14:06:22;;;;;;;2.97;1.23;;;12.90;89.30;;;;;;4935215;29;20134;-79
2022/02/14 14:08:50;;;;;;;4.93;1.33;;;12.80;90.00;;;;;;4934989;29;20494;-79
2022/02/14 14:11:30;;;;;;;3.92;1.52;;;12.70;90.70;;;;;;4935291;29;20054;-79
2022/02/14 14:13:57;;;;;;;3.70;1.13;;;12.60;90.30;;;;;;4935147;29;20083;-79
2022/02/14 14:16:25;;;;;;;5.82;2.10;;;12.60;90.50;;;;;;4935132;29;20167;-79
2022/02/14 14:18:52;;;;;;;4.80;1.90;;;12.60;92.10;;;;;;4931380;29;20139;-80
2022/02/14 14:21:19;;;;;;;4.43;1.60;;;12.60;92.80;;;;;;4915761;29;20108;-79
2022/02/14 14:23:47;;;;;;;3.53;1.20;;;12.50;84.80;;;;;;4916267;29;20123;-79
2022/02/14 14:26:16;;;;;;;3.33;1.13;;;12.40;85.60;;;;;;4917398;29;20060;-79
2022/02/14 14:28:46;;;;;;;4.07;1.13;;;12.50;86.80;;;;;;4920073;29;20056;-78
2022/02/14 14:31:14;;;;;;;5.20;1.33;;;12.60;89.40;;;;;;4919946;29;20454;-78
2022/02/14 14:33:41;;;;;;;2.92;1.20;;;12.50;92.70;;;;;;4919302;29;20056;-79
2022/02/14 14:36:10;;;;;;;3.80;1.10;;;12.40;97.20;;;;;;4920241;29;20056;-78
2022/02/14 14:38:39;;;;;;;3.03;1.15;;;12.40;91.70;;;;;;4920080;29;20135;-78
2022/02/14 14:41:06;;;;;;;3.78;1.48;;;12.40;92.00;;;;;;4920194;29;20052;-78
2022/02/14 14:43:33;;;;;;;3.53;1.08;;;12.20;92.40;;;;;;4920305;29;20056;-78
2022/02/14 14:46:02;;;;;;;3.22;1.20;;;12.30;92.90;;;;;;4919654;29;20150;-75
2022/02/14 14:48:29;;;;;;;2.97;1.10;;;;;;;;;;4920410;29;20052;-79
2022/02/14 14:50:57;;;;;;;5.15;1.30;;;;;;;;;;4935445;29;20057;-79
2022/02/14 14:53:24;;;;;;;3.20;1.27;;;12.10;85.80;;;;;;4958211;29;20134;-78
2022/02/14 14:55:51;;;;;;;5.35;1.38;;;12.00;87.30;;;;;;4958232;29;20094;-79
2022/02/14 14:58:18;;;;;;;2.75;1.00;;;11.90;90.30;;;;;;4957459;29;20086;-76
2022/02/14 15:00:46;;;;;;;3.60;0.98;;;11.80;90.90;;;;;;4957625;29;20126;-76
2022/02/14 15:03:16;;;;;;;4.95;1.10;;;11.70;91.10;;;;;;4957844;29;20137;-78
2022/02/14 15:05:43;;;;;;;2.67;1.05;;;11.70;91.70;;;;;;4956015;29;20474;-80
2022/02/14 15:08:11;;;;;;;2.92;0.95;;;11.70;91.80;;;;;;4957293;29;20138;-79
2022/02/14 15:10:38;;;;;;;4.20;1.00;;;11.60;92.00;;;;;;4957412;29;20047;-78
2022/02/14 15:13:05;;;;;;;4.65;1.10;;;11.60;92.20;;;;;;4956627;29;20502;-79
2022/02/14 15:15:33;;;;;;;2.92;1.02;;;11.60;92.40;;;;;;4958295;29;20051;-77
2022/02/14 15:18:00;;;;;;;3.03;0.90;;;11.60;92.40;;;;;;4958059;29;20125;-81
2022/02/14 15:20:29;;;;;;;3.63;1.10;;;11.60;92.60;;;;;;4950031;29;20139;-79
2022/02/14 15:22:56;;;;;;;4.22;1.30;;;11.50;92.70;;;;;;4950128;29;20058;-78
2022/02/14 15:25:23;;;;;;;3.17;1.10;;;11.40;92.70;;;;;;4957010;29;20053;-80
2022/02/14 15:27:51;;;;;;;2.33;0.90;;;11.40;92.60;;;;;;4937949;29;20489;-76
2022/02/14 15:30:19;;;;;;;2.63;1.00;;;11.40;92.70;;;;;;4938355;29;20078;-80
2022/02/14 15:32:47;;;;;;;4.90;2.15;;;11.40;92.70;;;;;;4938217;29;20052;-79
2022/02/14 15:35:17;;;;;;;3.70;1.63;;;11.40;92.80;;;;;;4937645;29;20047;-79
2022/02/14 15:37:45;;;;;;;3.92;1.20;;;11.40;92.90;;;;;;4937007;29;20194;-78
2022/02/14 15:40:13;;;;;;;3.50;1.20;;;11.30;93.10;;;;;;4937105;29;20134;-76
2022/02/14 15:42:40;;;;;;;3.33;1.10;;;11.30;93.30;;;;;;4957508;29;20054;-74
2022/02/14 15:45:08;;;;;;;2.85;1.00;;;11.20;93.70;;;;;;4957058;29;20404;-74
2022/02/14 15:47:37;;;;;;;2.72;1.08;;;11.20;93.60;;;;;;4957462;29;20078;-75
2022/02/14 15:50:06;;;;;;;3.63;1.13;;;11.10;93.70;;;;;;4957875;29;20051;-76
2022/02/14 15:52:33;;;;;;;3.83;1.23;;;11.10;93.80;;;;;;4951652;29;20146;-76
2022/02/14 15:55:01;;;;;;;3.80;1.15;;;11.10;93.90;;;;;;4936613;29;20126;-77
2022/02/14 15:57:28;;;;;;;2.80;0.93;;;11.10;94.00;;;;;;4957109;29;20047;-75
2022/02/14 15:59:57;;;;;;;3.03;1.10;;;11.10;94.10;;;;;;4940699;29;20135;-79
2022/02/14 16:02:24;;;;;;;4.15;1.10;;;11.10;94.20;;;;;;4937499;29;20051;-80
2022/02/14 16:04:51;;;;;;;3.95;1.10;;;11.10;94.30;;;;;;4937616;29;20052;-78
2022/02/14 16:07:18;;;;;;;2.70;0.90;;;11.10;94.40;;;;;;4937945;29;20054;-78
2022/02/14 16:09:45;;;;;;;2.38;1.00;;;11.00;94.70;;;;;;4947705;29;20560;-78
2022/02/14 16:12:16;;;;;;;2.65;1.00;;;11.00;94.90;;;;;;4941676;29;20051;-79
2022/02/14 16:14:43;;;;;;;2.80;1.05;;;11.00;95.00;;;;;;4937816;29;20086;-77
2022/02/14 16:17:10;;;;;;;3.55;1.10;;;11.00;95.10;;;;;;4937188;29;20134;-76
2022/02/14 16:19:37;;;;;;;2.33;0.90;;;10.90;95.20;;;;;;4957781;29;20051;-77
2022/02/14 16:22:05;;;;;;;3.17;1.17;;;10.90;95.20;;;;;;4956736;29;20053;-78
2022/02/14 16:24:32;;;;;;;3.38;1.15;;;10.90;95.20;;;;;;4957089;29;20043;-77
2022/02/14 16:26:59;;;;;;;2.15;0.80;;;10.90;95.20;;;;;;4956525;29;20071;-79
2022/02/14 16:29:29;;;;;;;2.70;0.95;;;10.80;95.20;;;;;;4955758;29;20082;-77
2022/02/14 16:31:56;;;;;;;1.73;0.70;;;10.80;95.30;;;;;;4956125;29;20142;-78
2022/02/14 16:34:23;;;;;;;2.97;0.80;;;10.80;95.40;;;;;;4956883;29;20147;-79
2022/02/14 16:36:50;;;;;;;2.33;0.70;;;10.70;95.40;;;;;;4956037;29;20058;-78
2022/02/14 16:39:18;;;;;;;1.45;0.70;;;10.70;95.50;;;;;;4956755;29;20050;-80
2022/02/14 16:41:45;;;;;;;2.33;0.70;;;10.70;95.60;;;;;;4955804;29;20057;-77
2022/02/14 16:44:12;;;;;;;1.90;0.80;;;10.70;95.60;;;;;;4955294;29;20138;-75
2022/02/14 16:46:41;;;;;;;2.30;0.90;;;10.60;95.80;;;;;;4955527;29;20138;-79
2022/02/14 16:49:09;;;;;;;2.10;0.80;;;10.60;95.80;;;;;;4956148;28;20449;-78
2022/02/14 16:51:37;;;;;;;2.25;0.70;;;10.60;95.90;;;;;;4955500;29;20138;-77
2022/02/14 16:54:05;;;;;;;1.35;0.55;;;10.60;96.00;;;;;;4956548;29;20468;-80
2022/02/14 16:56:33;;;;;;;1.38;0.60;;;10.60;96.00;;;;;;4955316;29;20138;-79
2022/02/14 16:59:00;;;;;;;1.33;0.50;;;10.50;96.00;;;;;;4935871;29;20051;-80
2022/02/14 17:01:28;;;;;;;2.67;0.75;;;10.50;96.10;;;;;;4936349;29;20134;-78
2022/02/14 17:03:56;;;;;;;2.88;0.70;;;10.50;96.20;;;;;;4936443;29;20059;-78
2022/02/14 17:06:23;;;;;;;3.00;0.95;;;10.40;96.20;;;;;;4946555;29;20484;-79
2022/02/14 17:08:50;;;;;;;1.52;0.68;;;10.40;96.40;;;;;;4955685;29;20146;-80
2022/02/14 17:11:18;;;;;;;2.33;0.70;;;10.40;96.50;;;;;;4954837;29;20047;-77
2022/02/14 17:13:47;;;;;;;2.10;0.80;;;10.30;96.70;;;;;;4959825;29;20057;-76
2022/02/14 17:16:14;;;;;;;1.65;0.70;;;10.30;96.80;;;;;;4955364;29;20058;-77
2022/02/14 17:18:42;;;;;;;2.58;0.90;;;10.30;97.00;;;;;;4954824;29;20074;-78
2022/02/14 17:21:10;;;;;;;2.08;0.90;;;10.20;97.30;;;;;;4955551;29;20078;-80
2022/02/14 17:23:37;;;;;;;2.28;0.80;;;10.20;97.10;;;;;;4951494;29;20114;-80
2022/02/14 17:26:04;;;;;;;2.55;1.02;;;10.20;97.20;;;;;;4950464;29;20122;-80
2022/02/14 17:28:31;;;;;;;2.25;0.82;;;10.20;97.30;;;;;;4949880;29;20495;-80
2022/02/14 17:30:59;;;;;;;2.17;0.82;;;10.10;97.80;;;;;;4953178;29;20061;-75
2022/02/14 17:33:25;;;;;;;2.38;0.80;;;10.10;97.70;;;;;;4954323;29;20051;-76
2022/02/14 17:35:52;;;;;;;2.45;0.82;;;10.10;97.60;;;;;;4955268;29;20147;-77
2022/02/14 17:38:21;;;;;;;2.08;0.80;;;10.00;97.60;;;;;;4954593;29;20217;-77
2022/02/14 17:40:48;;;;;;;3.03;1.10;;;10.00;97.70;;;;;;4955238;29;20556;-76
2022/02/14 17:43:17;;;;;;;2.03;0.80;;;10.00;97.80;;;;;;4951905;29;20111;-76
2022/02/14 17:45:45;;;;;;;3.42;1.00;;;10.00;97.80;;;;;;4950616;29;20073;-78
2022/02/14 17:48:14;;;;;;;2.15;0.70;;;10.00;97.70;;;;;;4955838;29;20102;-75
2022/02/14 17:50:42;;;;;;;2.72;0.73;;;9.90;97.70;;;;;;4954319;29;20098;-76
2022/02/14 17:53:10;;;;;;;1.98;0.80;;;9.90;97.80;;;;;;4955730;29;20090;-76
2022/02/14 17:55:39;;;;;;;2.10;0.80;;;9.90;97.90;;;;;;4951843;29;20401;-76
2022/02/14 17:58:07;;;;;;;2.80;0.80;;;9.80;97.90;;;;;;4951586;29;20130;-78
2022/02/14 18:00:34;;;;;;;2.40;0.90;;;9.80;98.00;;;;;;4955799;28;20051;-74